createdAt,value
2022-07-31T00:00:13.606Z,98115.19
2022-07-31T00:02:39.937Z,98123.25
2022-07-31T00:05:06.311Z,98122.69
2022-07-31T00:07:32.708Z,98120.00
2022-07-31T00:09:59.032Z,98121.59
2022-07-31T00:12:25.421Z,98116.22
2022-07-31T00:14:51.798Z,98124.28
2022-07-31T00:17:18.250Z,98120.50
2022-07-31T00:19:44.567Z,98120.22
2022-07-31T00:22:10.946Z,98117.00
2022-07-31T00:24:37.247Z,98123.69
2022-07-31T00:27:03.812Z,98119.91
2022-07-31T00:29:30.424Z,98124.75
2022-07-31T00:31:56.817Z,98116.13
2022-07-31T00:34:23.171Z,98113.16
2022-07-31T00:36:49.703Z,98113.41
2022-07-31T00:39:16.244Z,98123.88
2022-07-31T00:41:42.582Z,98121.47
2022-07-31T00:44:12.130Z,98115.81
2022-07-31T00:46:38.845Z,98111.25
2022-07-31T00:49:06.698Z,98113.66
2022-07-31T00:51:33.009Z,98116.56
2022-07-31T00:53:59.353Z,98108.75
2022-07-31T00:56:25.793Z,98109.84
2022-07-31T00:58:52.205Z,98111.97
2022-07-31T01:01:18.942Z,98111.97
2022-07-31T01:03:45.310Z,98120.31
2022-07-31T01:06:11.675Z,98114.38
2022-07-31T01:08:38.000Z,98114.38
2022-07-31T01:11:04.327Z,98113.81
2022-07-31T01:13:31.860Z,98121.84
2022-07-31T01:15:58.297Z,98116.75
2022-07-31T01:18:24.644Z,98118.09
2022-07-31T01:20:51.077Z,98122.41
2022-07-31T01:23:17.538Z,98114.91
2022-07-31T01:25:44.114Z,98111.94
2022-07-31T01:28:10.504Z,98112.72
2022-07-31T01:30:36.815Z,98114.06
2022-07-31T01:33:03.647Z,98109.47
2022-07-31T01:35:29.936Z,98114.06
2022-07-31T01:37:56.394Z,98110.28
2022-07-31T01:40:22.681Z,98115.63
2022-07-31T01:42:48.955Z,98112.09
2022-07-31T01:45:15.370Z,98108.28
2022-07-31T01:47:41.714Z,98105.03
2022-07-31T01:50:08.114Z,98105.53
2022-07-31T01:52:41.984Z,98107.94
2022-07-31T01:55:08.338Z,98102.31
2022-07-31T01:57:34.679Z,98101.25
2022-07-31T02:00:01.255Z,98102.81
2022-07-31T02:02:27.884Z,98108.72
2022-07-31T02:04:54.190Z,98106.53
2022-07-31T02:07:20.458Z,98100.28
2022-07-31T02:09:52.369Z,98102.97
2022-07-31T02:12:33.859Z,98100.84
2022-07-31T02:15:00.372Z,98100.53
2022-07-31T02:17:26.659Z,98103.22
2022-07-31T02:19:59.933Z,98102.72
2022-07-31T02:22:27.364Z,98111.53
2022-07-31T02:24:53.696Z,98104.56
2022-07-31T02:27:53.960Z,98100.22
2022-07-31T02:30:06.388Z,98102.59
2022-07-31T02:32:32.664Z,98097.50
2022-07-31T02:34:59.157Z,98098.25
2022-07-31T02:37:25.434Z,98094.19
2022-07-31T02:39:51.787Z,98092.59
2022-07-31T02:42:18.212Z,98090.44
2022-07-31T02:44:44.587Z,98084.75
2022-07-31T02:47:10.994Z,98089.31
2022-07-31T02:49:37.265Z,98084.69
2022-07-31T02:52:03.780Z,98079.59
2022-07-31T02:54:30.283Z,98078.22
2022-07-31T02:56:57.105Z,98078.44
2022-07-31T02:59:23.485Z,98074.91
2022-07-31T03:01:49.834Z,98077.06
2022-07-31T03:04:16.188Z,98072.69
2022-07-31T03:06:42.514Z,98075.34
2022-07-31T03:09:08.856Z,98074.53
2022-07-31T03:11:35.191Z,98070.97
2022-07-31T03:14:01.495Z,98075.84
2022-07-31T03:16:27.790Z,98071.28
2022-07-31T03:18:54.088Z,98071.03
2022-07-31T03:21:20.407Z,98066.53
2022-07-31T03:23:46.978Z,98071.84
2022-07-31T03:26:13.307Z,98065.84
2022-07-31T03:28:39.624Z,98072.00
2022-07-31T03:31:06.030Z,98067.34
2022-07-31T03:33:32.437Z,98076.66
2022-07-31T03:35:58.793Z,98077.75
2022-07-31T03:38:38.728Z,98084.75
2022-07-31T03:41:09.587Z,98084.44
2022-07-31T03:43:44.223Z,98077.66
2022-07-31T03:46:14.545Z,98081.88
2022-07-31T03:48:40.850Z,98080.84
2022-07-31T03:51:07.283Z,98081.88
2022-07-31T03:53:33.605Z,98082.41
2022-07-31T03:55:59.911Z,98076.19
2022-07-31T03:58:26.188Z,98089.81
2022-07-31T04:00:53.586Z,98080.88
2022-07-31T04:03:20.814Z,98087.31
2022-07-31T04:05:47.232Z,98091.84
2022-07-31T04:08:13.540Z,98090.50
2022-07-31T04:10:39.837Z,98092.59
2022-07-31T04:13:06.098Z,98091.16
2022-07-31T04:15:32.412Z,98091.16
2022-07-31T04:17:58.730Z,98097.59
2022-07-31T04:20:25.155Z,98097.66
2022-07-31T04:22:51.502Z,98102.75
2022-07-31T04:25:22.079Z,98105.16
2022-07-31T04:27:49.034Z,98096.00
2022-07-31T04:30:15.432Z,98108.16
2022-07-31T04:32:42.879Z,98117.13
2022-07-31T04:35:09.257Z,98107.34
2022-07-31T04:37:35.547Z,98102.09
2022-07-31T04:40:01.921Z,98099.31
2022-07-31T04:42:28.214Z,98099.03
2022-07-31T04:44:59.348Z,98097.47
2022-07-31T04:47:25.633Z,98107.84
2022-07-31T04:49:52.265Z,98112.00
2022-07-31T04:52:18.586Z,98118.78
2022-07-31T04:54:45.092Z,98118.50
2022-07-31T04:57:11.414Z,98117.38
2022-07-31T04:59:59.554Z,98122.03
2022-07-31T05:02:24.055Z,98132.81
2022-07-31T05:04:54.337Z,98132.09
2022-07-31T05:07:23.144Z,98123.06
2022-07-31T05:09:49.731Z,98122.41
2022-07-31T05:12:16.060Z,98125.56
2022-07-31T05:14:43.511Z,98121.81
2022-07-31T05:17:09.833Z,98120.22
2022-07-31T05:19:36.125Z,98126.13
2022-07-31T05:22:02.914Z,98118.34
2022-07-31T05:24:33.772Z,98128.03
2022-07-31T05:27:00.463Z,98124.09
2022-07-31T05:29:26.742Z,98115.56
2022-07-31T05:31:59.517Z,98112.25
2022-07-31T05:34:36.963Z,98119.44
2022-07-31T05:37:03.468Z,98125.66
2022-07-31T05:39:31.881Z,98131.38
2022-07-31T05:41:58.278Z,98133.59
2022-07-31T05:44:24.833Z,98135.50
2022-07-31T05:49:16.489Z,98154.09
2022-07-31T05:51:42.869Z,98173.94
2022-07-31T05:54:09.192Z,98177.31
2022-07-31T05:56:35.511Z,98181.34
2022-07-31T05:59:01.839Z,98164.19
2022-07-31T06:01:28.205Z,98166.59
2022-07-31T06:03:54.504Z,98182.50
2022-07-31T06:06:21.053Z,98186.88
2022-07-31T06:08:47.376Z,98197.16
2022-07-31T06:11:13.677Z,98192.34
2022-07-31T06:13:40.039Z,98190.47
2022-07-31T06:16:06.347Z,98182.19
2022-07-31T06:18:32.658Z,98182.72
2022-07-31T06:20:59.195Z,98198.69
2022-07-31T06:23:32.202Z,98210.28
2022-07-31T06:25:58.820Z,98215.16
2022-07-31T06:28:35.380Z,98217.31
2022-07-31T06:31:11.387Z,98230.78
2022-07-31T06:33:38.137Z,98223.00
2022-07-31T06:36:04.578Z,98226.53
2022-07-31T06:38:30.935Z,98204.72
2022-07-31T06:40:57.238Z,98203.91
2022-07-31T06:43:24.055Z,98195.84
2022-07-31T06:45:52.094Z,98206.34
2022-07-31T06:48:18.843Z,98191.53
2022-07-31T06:50:45.124Z,98191.53
2022-07-31T06:53:11.578Z,98182.38
2022-07-31T06:55:37.941Z,98188.31
2022-07-31T06:58:10.793Z,98191.56
2022-07-31T07:00:37.191Z,98189.41
2022-07-31T07:03:03.466Z,98173.56
2022-07-31T07:05:29.812Z,98153.66
2022-07-31T07:07:56.286Z,98168.16
2022-07-31T07:10:22.576Z,98183.75
2022-07-31T07:12:48.891Z,98174.34
2022-07-31T07:15:15.248Z,98158.72
2022-07-31T07:17:41.559Z,98150.94
2022-07-31T07:20:07.857Z,98177.81
2022-07-31T07:22:34.205Z,98204.97
2022-07-31T07:25:00.547Z,98203.88
2022-07-31T07:27:26.860Z,98224.00
2022-07-31T07:29:53.247Z,98217.22
2022-07-31T07:32:19.626Z,98212.06
2022-07-31T07:34:46.175Z,98188.66
2022-07-31T07:37:12.504Z,98175.78
2022-07-31T07:39:38.892Z,98162.06
2022-07-31T07:42:05.570Z,98165.56
2022-07-31T07:44:32.138Z,98167.69
2022-07-31T07:46:58.495Z,98158.50
2022-07-31T07:49:24.901Z,98153.91
2022-07-31T07:51:59.041Z,98142.84
2022-07-31T07:54:26.572Z,98147.19
2022-07-31T07:56:52.964Z,98129.94
2022-07-31T07:59:19.268Z,98128.34
2022-07-31T08:01:45.674Z,98132.84
2022-07-31T08:04:12.073Z,98139.28
2022-07-31T08:06:38.384Z,98142.19
2022-07-31T08:09:04.770Z,98142.69
2022-07-31T08:11:31.121Z,98138.34
2022-07-31T08:13:57.481Z,98151.22
2022-07-31T08:16:23.928Z,98160.28
2022-07-31T08:18:50.251Z,98134.72
2022-07-31T08:21:17.026Z,98122.09
2022-07-31T08:23:43.530Z,98105.38
2022-07-31T08:26:09.961Z,98104.31
2022-07-31T08:28:37.821Z,98108.56
2022-07-31T08:31:04.178Z,98113.34
2022-07-31T08:33:30.527Z,98077.09
2022-07-31T08:35:57.053Z,98091.31
2022-07-31T08:38:26.426Z,98076.00
2022-07-31T08:40:52.968Z,98085.16
2022-07-31T08:44:00.618Z,98074.94
2022-07-31T08:46:05.673Z,98063.16
2022-07-31T08:48:31.966Z,98085.41
2022-07-31T08:50:58.319Z,98084.25
2022-07-31T08:53:26.949Z,98076.97
2022-07-31T08:55:57.071Z,98073.50
2022-07-31T08:58:24.602Z,98041.53
2022-07-31T09:00:51.786Z,98031.88
2022-07-31T09:03:18.361Z,98035.66
2022-07-31T09:05:46.518Z,98033.50
2022-07-31T09:08:14.666Z,98027.56
2022-07-31T09:10:45.054Z,98025.91
2022-07-31T09:13:26.336Z,98033.16
2022-07-31T09:15:54.757Z,98031.53
2022-07-31T09:18:21.079Z,98034.69
2022-07-31T09:20:47.471Z,98046.50
2022-07-31T09:23:16.723Z,98055.81
2022-07-31T09:25:43.191Z,98056.06
2022-07-31T09:28:09.696Z,98054.13
2022-07-31T09:30:36.015Z,98053.81
2022-07-31T09:33:22.299Z,98076.31
2022-07-31T09:35:48.665Z,98066.28
2022-07-31T09:38:14.988Z,98062.19
2022-07-31T09:40:56.736Z,98058.47
2022-07-31T09:43:24.073Z,98048.75
2022-07-31T09:45:50.414Z,98040.13
2022-07-31T09:48:26.473Z,98035.84
2022-07-31T09:50:53.400Z,98027.22
2022-07-31T09:53:20.007Z,98039.59
2022-07-31T09:55:46.329Z,98036.53
2022-07-31T09:58:13.926Z,98049.69
2022-07-31T10:00:40.236Z,98031.94
2022-07-31T10:03:06.590Z,98021.25
2022-07-31T10:05:32.901Z,97994.69
2022-07-31T10:07:59.266Z,97992.84
2022-07-31T10:10:25.691Z,98003.00
2022-07-31T10:12:52.029Z,97991.16
2022-07-31T10:15:18.637Z,97997.91
2022-07-31T10:17:45.012Z,97989.56
2022-07-31T10:20:11.383Z,97983.94
2022-07-31T10:22:37.697Z,97989.56
2022-07-31T10:25:04.141Z,97990.88
2022-07-31T10:27:30.538Z,97995.94
2022-07-31T10:29:58.632Z,97992.72
2022-07-31T10:32:24.980Z,98003.97
2022-07-31T10:34:51.342Z,98000.13
2022-07-31T10:37:17.671Z,97988.03
2022-07-31T10:39:44.065Z,97975.38
2022-07-31T10:42:10.390Z,97977.00
2022-07-31T10:44:38.773Z,97968.97
2022-07-31T10:47:05.554Z,97980.78
2022-07-31T10:49:32.279Z,97980.22
2022-07-31T10:51:59.237Z,97984.22
2022-07-31T10:54:25.721Z,97971.31
2022-07-31T10:56:52.045Z,97968.25
2022-07-31T10:59:18.386Z,97967.19
2022-07-31T11:01:53.028Z,97965.00
2022-07-31T11:04:19.880Z,97980.84
2022-07-31T11:06:46.306Z,97968.63
2022-07-31T11:09:12.647Z,97967.50
2022-07-31T11:11:38.965Z,97976.84
2022-07-31T11:14:05.396Z,97971.94
2022-07-31T11:16:34.213Z,97986.94
2022-07-31T11:19:00.528Z,97984.97
2022-07-31T11:21:38.482Z,97987.31
2022-07-31T11:24:09.961Z,97982.63
2022-07-31T11:26:41.634Z,97992.78
2022-07-31T11:29:58.899Z,97995.41
2022-07-31T11:31:58.076Z,97997.53
2022-07-31T11:34:24.425Z,97972.78
2022-07-31T11:36:51.723Z,97972.72
2022-07-31T11:39:18.277Z,97976.13
2022-07-31T11:41:45.596Z,97983.34
2022-07-31T11:44:12.223Z,97963.13
2022-07-31T11:46:39.017Z,97977.88
2022-07-31T11:49:05.558Z,97968.97
2022-07-31T11:51:32.121Z,97954.06
2022-07-31T11:53:58.445Z,97949.16
2022-07-31T11:56:24.982Z,97924.72
2022-07-31T11:58:51.334Z,97936.34
2022-07-31T12:01:20.345Z,97935.81
2022-07-31T12:03:46.734Z,97911.84
2022-07-31T12:06:13.087Z,97925.56
2022-07-31T12:08:41.181Z,97924.28
2022-07-31T12:11:07.829Z,97916.47
2022-07-31T12:13:34.236Z,97915.97
2022-07-31T12:16:00.526Z,97906.75
2022-07-31T12:18:27.076Z,97903.53
2022-07-31T12:20:53.433Z,97928.50
2022-07-31T12:23:38.614Z,97939.50
2022-07-31T12:26:06.202Z,97913.09
2022-07-31T12:28:32.486Z,97923.09
2022-07-31T12:30:59.729Z,97910.47
2022-07-31T12:33:26.025Z,97917.41
2022-07-31T12:35:56.267Z,97924.84
2022-07-31T12:38:38.305Z,97930.75
2022-07-31T12:41:09.875Z,97917.22
2022-07-31T12:43:37.673Z,97922.84
2022-07-31T12:46:04.034Z,97924.75
2022-07-31T12:48:33.758Z,97918.25
2022-07-31T12:51:02.614Z,97925.25
2022-07-31T12:53:28.884Z,97925.75
2022-07-31T12:55:55.261Z,97918.44
2022-07-31T12:58:21.662Z,97917.06
2022-07-31T13:00:48.201Z,97913.78
2022-07-31T13:03:14.711Z,97910.78
2022-07-31T13:05:41.067Z,97909.09
2022-07-31T13:08:09.569Z,97911.19
2022-07-31T13:10:35.932Z,97905.50
2022-07-31T13:13:02.299Z,97907.41
2022-07-31T13:15:28.687Z,97896.59
2022-07-31T13:17:55.024Z,97894.69
2022-07-31T13:20:21.463Z,97882.56
2022-07-31T13:22:47.810Z,97895.97
2022-07-31T13:25:14.184Z,97898.38
2022-07-31T13:27:41.515Z,97895.97
2022-07-31T13:30:07.960Z,97898.09
2022-07-31T13:32:34.294Z,97888.38
2022-07-31T13:35:19.529Z,97894.59
2022-07-31T13:37:46.994Z,97893.78
2022-07-31T13:40:13.293Z,97896.19
2022-07-31T13:42:39.575Z,97881.06
2022-07-31T13:45:08.336Z,97895.38
2022-07-31T13:47:51.074Z,97890.78
2022-07-31T13:50:18.505Z,97887.00
2022-07-31T13:52:44.875Z,97887.78
2022-07-31T13:55:11.231Z,97893.69
2022-07-31T13:57:37.624Z,97885.88
2022-07-31T14:00:03.957Z,97884.28
2022-07-31T14:02:30.492Z,97885.06
2022-07-31T14:04:56.893Z,97875.38
2022-07-31T14:07:23.651Z,97875.38
2022-07-31T14:10:09.979Z,97866.13
2022-07-31T14:12:36.278Z,97876.97
2022-07-31T14:15:02.701Z,97871.53
2022-07-31T14:17:29.180Z,97869.66
2022-07-31T14:19:55.694Z,97870.16
2022-07-31T14:22:22.004Z,97885.47
2022-07-31T14:24:50.822Z,97875.97
2022-07-31T14:27:17.815Z,97872.16
2022-07-31T14:29:44.236Z,97878.69
2022-07-31T14:32:10.746Z,97877.25
2022-07-31T14:34:37.183Z,97882.16
2022-07-31T14:37:03.794Z,97872.75
2022-07-31T14:39:30.378Z,97866.34
2022-07-31T14:41:56.751Z,97860.94
2022-07-31T14:44:28.630Z,97872.25
2022-07-31T14:46:55.556Z,97862.03
2022-07-31T14:49:21.917Z,97860.16
2022-07-31T14:51:48.429Z,97862.03
2022-07-31T14:54:14.701Z,97868.28
2022-07-31T14:57:00.290Z,97863.63
2022-07-31T14:59:27.555Z,97853.94
2022-07-31T15:01:59.663Z,97858.03
2022-07-31T15:04:25.976Z,97862.34
2022-07-31T15:07:02.998Z,97854.81
2022-07-31T15:09:38.616Z,97852.94
2022-07-31T15:12:05.063Z,97852.41
2022-07-31T15:14:31.346Z,97855.13
2022-07-31T15:16:57.632Z,97865.16
2022-07-31T15:19:24.074Z,97863.22
2022-07-31T15:22:16.074Z,97858.44
2022-07-31T15:24:37.006Z,97864.97
2022-07-31T15:27:03.747Z,97855.63
2022-07-31T15:30:04.406Z,97851.91
2022-07-31T15:32:16.507Z,97858.69
2022-07-31T15:34:42.869Z,97844.06
2022-07-31T15:37:09.202Z,97848.66
2022-07-31T15:39:35.532Z,97849.47
2022-07-31T15:42:01.868Z,97852.97
2022-07-31T15:44:28.292Z,97856.75
2022-07-31T15:46:54.618Z,97848.44
2022-07-31T15:49:21.029Z,97861.13
2022-07-31T15:51:47.932Z,97854.25
2022-07-31T15:54:14.286Z,97863.84
2022-07-31T15:56:40.688Z,97849.13
2022-07-31T15:59:06.962Z,97853.53
2022-07-31T16:01:33.390Z,97860.81
2022-07-31T16:03:59.759Z,97864.03
2022-07-31T16:06:27.997Z,97868.41
2022-07-31T16:08:58.789Z,97855.50
2022-07-31T16:11:25.107Z,97848.50
2022-07-31T16:14:11.408Z,97849.78
2022-07-31T16:16:37.677Z,97842.59
2022-07-31T16:19:04.260Z,97836.69
2022-07-31T16:21:30.776Z,97833.97
2022-07-31T16:23:57.152Z,97842.59
2022-07-31T16:26:23.464Z,97831.28
2022-07-31T16:28:54.044Z,97830.19
2022-07-31T16:31:30.327Z,97810.78
2022-07-31T16:33:57.085Z,97816.47
2022-07-31T16:36:23.386Z,97814.56
2022-07-31T16:39:17.678Z,97810.56
2022-07-31T16:41:36.317Z,97812.75
2022-07-31T16:44:02.640Z,97820.56
2022-07-31T16:46:28.902Z,97813.56
2022-07-31T16:48:55.311Z,97805.25
2022-07-31T16:51:21.671Z,97805.53
2022-07-31T16:54:10.857Z,97799.63
2022-07-31T16:56:34.341Z,97806.63
2022-07-31T16:59:00.667Z,97805.03
2022-07-31T17:01:58.784Z,97801.63
2022-07-31T17:04:13.415Z,97801.63
2022-07-31T17:06:39.755Z,97807.31
2022-07-31T17:09:17.543Z,97799.28
2022-07-31T17:11:44.426Z,97801.97
2022-07-31T17:14:11.153Z,97791.44
2022-07-31T17:16:37.549Z,97791.22
2022-07-31T17:19:05.637Z,97799.34
2022-07-31T17:21:32.414Z,97795.84
2022-07-31T17:23:59.490Z,97796.63
2022-07-31T17:26:26.234Z,97777.81
2022-07-31T17:28:55.525Z,97768.44
2022-07-31T17:31:21.883Z,97773.31
2022-07-31T17:33:54.548Z,97776.84
2022-07-31T17:36:27.249Z,97775.50
2022-07-31T17:38:53.605Z,97772.00
2022-07-31T17:41:24.849Z,97780.59
2022-07-31T17:43:53.325Z,97774.41
2022-07-31T17:46:28.270Z,97776.63
2022-07-31T17:49:01.292Z,97776.09
2022-07-31T17:51:27.654Z,97764.59
2022-07-31T17:54:00.384Z,97777.78
2022-07-31T17:56:26.947Z,97782.38
2022-07-31T17:58:53.305Z,97778.69
2022-07-31T18:01:24.407Z,97782.16
2022-07-31T18:03:54.776Z,97785.97
2022-07-31T18:06:21.242Z,97774.16
2022-07-31T18:08:47.691Z,97773.34
2022-07-31T18:11:14.079Z,97771.53
2022-07-31T18:13:48.711Z,97775.34
2022-07-31T18:16:18.163Z,97773.72
2022-07-31T18:18:44.465Z,97779.31
2022-07-31T18:21:11.255Z,97788.53
2022-07-31T18:23:37.553Z,97780.22
2022-07-31T18:26:10.402Z,97785.41
2022-07-31T18:28:36.772Z,97781.06
2022-07-31T18:31:03.136Z,97777.09
2022-07-31T18:33:29.555Z,97782.47
2022-07-31T18:35:55.878Z,97793.56
2022-07-31T18:38:22.204Z,97785.25
2022-07-31T18:40:48.595Z,97796.38
2022-07-31T18:43:14.886Z,97795.94
2022-07-31T18:45:41.574Z,97789.31
2022-07-31T18:48:08.298Z,97778.94
2022-07-31T18:51:00.027Z,97772.59
2022-07-31T18:53:20.963Z,97780.41
2022-07-31T18:55:47.355Z,97792.41
2022-07-31T18:58:13.674Z,97778.84
2022-07-31T19:00:39.986Z,97763.63
2022-07-31T19:03:06.299Z,97769.56
2022-07-31T19:05:32.744Z,97759.66
2022-07-31T19:07:59.106Z,97773.44
2022-07-31T19:10:29.601Z,97776.41
2022-07-31T19:12:57.418Z,97778.31
2022-07-31T19:15:23.828Z,97768.94
2022-07-31T19:17:50.152Z,97768.16
2022-07-31T19:20:44.524Z,97779.69
2022-07-31T19:23:03.803Z,97776.78
2022-07-31T19:25:30.288Z,97773.56
2022-07-31T19:28:16.602Z,97781.59
2022-07-31T19:30:45.820Z,97767.13
2022-07-31T19:33:12.486Z,97790.81
2022-07-31T19:35:55.317Z,97783.53
2022-07-31T19:38:25.304Z,97800.75
2022-07-31T19:40:51.589Z,97785.19
2022-07-31T19:43:18.038Z,97788.72
2022-07-31T19:46:02.556Z,97792.44
2022-07-31T19:48:33.314Z,97811.84
2022-07-31T19:50:59.630Z,97804.84
2022-07-31T19:53:26.074Z,97790.91
2022-07-31T19:55:52.391Z,97808.63
2022-07-31T19:58:18.711Z,97798.97
2022-07-31T20:00:45.082Z,97798.75
2022-07-31T20:03:11.535Z,97793.13
2022-07-31T20:05:38.079Z,97801.72
2022-07-31T20:08:04.552Z,97822.34
2022-07-31T20:10:30.859Z,97818.06
2022-07-31T20:12:57.254Z,97819.94
2022-07-31T20:15:23.966Z,97836.63
2022-07-31T20:17:50.285Z,97836.41
2022-07-31T20:20:16.601Z,97840.50
2022-07-31T20:22:43.075Z,97850.94
2022-07-31T20:25:19.461Z,97852.28
2022-07-31T20:27:46.723Z,97867.94
2022-07-31T20:30:13.111Z,97872.81
2022-07-31T20:32:48.607Z,97884.69
2022-07-31T20:35:32.904Z,97900.84
2022-07-31T20:38:01.664Z,97898.78
2022-07-31T20:40:28.028Z,97907.38
2022-07-31T20:42:54.362Z,97890.22
2022-07-31T20:45:20.731Z,97870.16
2022-07-31T20:47:47.089Z,97865.59
2022-07-31T20:50:13.370Z,97872.72
2022-07-31T20:52:39.815Z,97878.13
2022-07-31T20:55:06.155Z,97877.59
2022-07-31T20:57:32.570Z,97873.63
2022-07-31T20:59:58.895Z,98018.47
2022-07-31T21:02:27.536Z,98055.44
2022-07-31T21:04:53.906Z,98057.56
2022-07-31T21:07:20.502Z,98054.16
2022-07-31T21:09:46.834Z,98063.63
2022-07-31T21:12:13.313Z,98064.81
2022-07-31T21:14:39.661Z,98058.72
2022-07-31T21:17:05.942Z,98053.63
2022-07-31T21:19:32.222Z,98049.66
2022-07-31T21:21:58.652Z,98053.97
2022-07-31T21:24:25.742Z,98053.19
2022-07-31T21:26:52.340Z,98049.72
2022-07-31T21:29:22.796Z,98048.69
2022-07-31T21:31:50.198Z,98049.22
2022-07-31T21:34:16.671Z,98049.75
2022-07-31T21:36:42.968Z,98050.56
2022-07-31T21:39:09.333Z,98058.13
2022-07-31T21:41:45.270Z,98058.97
2022-07-31T21:44:11.651Z,98057.91
2022-07-31T21:46:41.278Z,98053.38
2022-07-31T21:49:12.508Z,98056.09
2022-07-31T21:51:38.891Z,98058.53
2022-07-31T21:54:06.763Z,98061.75
2022-07-31T21:56:33.039Z,98058.53
2022-07-31T21:58:59.479Z,98062.59
2022-07-31T22:01:25.989Z,98064.19
2022-07-31T22:03:52.851Z,98061.78
2022-07-31T22:06:23.224Z,98062.03
2022-07-31T22:08:52.283Z,98063.13
2022-07-31T22:11:18.579Z,98063.38
2022-07-31T22:13:44.892Z,98046.47
2022-07-31T22:16:11.165Z,98046.19
2022-07-31T22:18:37.509Z,98042.72
2022-07-31T22:21:03.799Z,98043.03
2022-07-31T22:23:30.416Z,98048.94
2022-07-31T22:25:56.715Z,98043.56
2022-07-31T22:28:23.104Z,98045.19
2022-07-31T22:30:49.416Z,98051.13
2022-07-31T22:33:15.738Z,98049.28
2022-07-31T22:35:42.043Z,98049.00
2022-07-31T22:38:08.518Z,98047.66
2022-07-31T22:40:34.788Z,98050.91
2022-07-31T22:43:02.665Z,98060.31
2022-07-31T22:45:29.865Z,98053.34
2022-07-31T22:47:56.191Z,98056.03
2022-07-31T22:50:22.535Z,98047.94
2022-07-31T22:52:48.801Z,98049.81
2022-07-31T22:55:15.170Z,98050.66
2022-07-31T22:57:41.611Z,98053.34
2022-07-31T23:00:07.987Z,98051.72
2022-07-31T23:02:34.383Z,98050.66
2022-07-31T23:05:00.719Z,98050.66
2022-07-31T23:07:27.007Z,98051.47
2022-07-31T23:09:53.308Z,98060.59
2022-07-31T23:12:19.694Z,98057.91
2022-07-31T23:14:46.147Z,98053.34
2022-07-31T23:17:22.486Z,98051.19
2022-07-31T23:19:50.055Z,98049.81
2022-07-31T23:22:20.891Z,98049.56
2022-07-31T23:24:59.908Z,98050.13
2022-07-31T23:27:26.289Z,98046.88
2022-07-31T23:29:52.698Z,98049.31
2022-07-31T23:32:19.079Z,98050.94
2022-07-31T23:34:46.598Z,98047.44
2022-07-31T23:37:13.009Z,98050.41
2022-07-31T23:39:39.404Z,98033.47
2022-07-31T23:42:05.926Z,98035.34
2022-07-31T23:44:32.354Z,98031.03
2022-07-31T23:47:06.450Z,98026.72
2022-07-31T23:49:32.892Z,98024.28
2022-07-31T23:51:59.272Z,98027.78
2022-07-31T23:54:25.653Z,98020.00
2022-07-31T23:56:52.063Z,98015.44
2022-07-31T23:59:18.461Z,98015.44
